Time;durP1;ratioP1;P1;durP2;ratioP2;P2;SDS_P1;SDS_P2;PMS_P1;PMS_P2;Temp;Humidity;BMP_temperature;BMP_pressure;BME280_temperature;BME280_humidity;BME280_pressure;Samples;Min_cycle;Max_cycle;Signal;HPM_P1;HPM_P2
2023/04/26 06:41:18;;;;;;;;;7.50;6.75;;;;;17.51;45.51;101438.16;5119722;27;45384;-78
2023/04/26 06:43:44;;;;;;;;;8.75;8.00;;;;;18.07;46.29;101441.31;5108634;27;45414;-78
2023/04/26 06:46:09;;;;;;;;;7.50;6.75;;;;;18.85;46.61;101443.47;5108992;27;45591;-78
2023/04/26 06:48:34;;;;;;;;;6.75;5.75;;;;;19.71;46.63;101447.50;5103032;27;45536;-78
2023/04/26 06:51:04;;;;;;;;;6.25;6.25;;;;;20.54;45.82;101445.13;5107824;27;47014;-80
2023/04/26 06:53:30;;;;;;;;;6.00;5.00;;;;;21.29;46.03;101446.81;5094181;27;45778;-78
2023/04/26 06:55:56;;;;;;;;;7.75;6.50;;;;;21.90;45.44;101440.59;5106220;27;52518;-78
2023/04/26 06:58:22;;;;;;;;;4.75;4.75;;;;;22.49;44.38;101444.13;5107478;27;45412;-76
2023/04/26 07:00:47;;;;;;;;;8.25;6.75;;;;;22.98;44.33;101445.91;5102198;27;47244;-79
2023/04/26 07:03:13;;;;;;;;;6.50;6.50;;;;;23.41;43.93;101443.63;5099477;27;52527;-80
2023/04/26 07:05:39;;;;;;;;;5.50;5.50;;;;;23.80;43.23;101453.34;5117048;27;48049;-78
2023/04/26 07:08:05;;;;;;;;;5.33;5.33;;;;;24.13;42.96;101446.56;5103838;27;45563;-77
2023/04/26 07:10:30;;;;;;;;;4.00;4.00;;;;;24.41;42.32;101446.47;5099299;27;45633;-77
2023/04/26 07:12:55;;;;;;;;;5.67;5.67;;;;;24.65;41.90;101440.41;5102754;27;45902;-77
2023/04/26 07:15:21;;;;;;;;;6.00;6.00;;;;;24.90;41.80;101443.28;5109275;27;45771;-77
2023/04/26 07:17:46;;;;;;;;;4.00;4.00;;;;;25.11;41.39;101434.75;5105114;27;45784;-78
2023/04/26 07:20:14;;;;;;;;;8.33;6.33;;;;;25.30;40.85;101438.19;5102909;27;46209;-77
2023/04/26 07:22:39;;;;;;;;;5.33;5.00;;;;;25.47;40.94;101435.56;5098887;27;45462;-78
2023/04/26 07:25:05;;;;;;;;;4.67;4.67;;;;;25.64;40.24;101439.19;5109083;27;45440;-78
2023/04/26 07:27:30;;;;;;;;;4.00;4.00;;;;;25.79;39.79;101439.41;5106930;27;45542;-81
2023/04/26 07:29:56;;;;;;;;;10.00;6.00;;;;;25.90;39.96;101430.91;5100970;27;47096;-80
2023/04/26 07:32:21;;;;;;;;;7.00;6.00;;;;;26.05;39.46;101446.56;5117053;27;45553;-84
2023/04/26 07:34:47;;;;;;;;;7.67;5.00;;;;;26.14;39.45;101448.28;5099465;27;45626;-81
2023/04/26 07:37:12;;;;;;;;;12.33;8.00;;;;;26.26;39.33;101451.53;5089897;27;45486;-81
2023/04/26 07:39:37;;;;;;;;;6.67;6.67;;;;;26.37;38.67;101447.63;5097195;27;57005;-79
2023/04/26 07:42:03;;;;;;;;;6.00;6.00;;;;;26.44;38.80;101445.91;5098004;27;49169;-90
2023/04/26 07:44:28;;;;;;;;;6.00;6.00;;;;;26.52;38.29;101442.34;5105611;27;45715;-90
2023/04/26 07:46:53;;;;;;;;;5.67;4.67;;;;;26.64;38.27;101437.38;5097256;27;45453;-93
2023/04/26 07:49:19;;;;;;;;;6.33;5.67;;;;;26.74;38.56;101439.06;5091320;27;46288;-89
2023/04/26 07:51:44;;;;;;;;;6.00;4.33;;;;;26.83;38.23;101430.72;5089199;27;45571;-82
2023/04/26 07:54:10;;;;;;;;;8.33;5.67;;;;;26.93;38.42;101438.69;5085496;27;45422;-84
2023/04/26 07:56:35;;;;;;;;;5.00;5.00;;;;;27.02;38.40;101438.69;5087876;27;45425;-81
2023/04/26 07:59:01;;;;;;;;;5.67;5.67;;;;;27.08;37.48;101432.53;5073636;27;45577;-78
2023/04/26 08:01:26;;;;;;;;;7.00;7.00;;;;;27.13;37.39;101430.13;5084040;27;45471;-77
2023/04/26 08:03:52;;;;;;;;;8.00;6.00;;;;;27.18;37.81;101422.25;5084771;27;45643;-80
2023/04/26 08:06:17;;;;;;;;;4.00;4.00;;;;;27.24;37.62;101428.88;5082694;27;45388;-78
2023/04/26 08:08:49;;;;;;;;;6.00;5.67;;;;;27.28;37.13;101418.47;5094475;27;46098;-80
2023/04/26 08:11:14;;;;;;;;;4.33;4.33;;;;;27.35;37.27;101425.75;5093961;27;45336;-78
2023/04/26 08:13:40;;;;;;;;;6.67;5.00;;;;;27.40;37.50;101424.38;5088923;27;45612;-78
2023/04/26 08:16:05;;;;;;;;;4.00;4.00;;;;;27.45;36.86;101419.25;5078501;27;45408;-78
2023/04/26 08:18:31;;;;;;;;;4.00;4.00;;;;;27.49;37.24;101428.75;5092599;27;45994;-78
2023/04/26 08:20:57;;;;;;;;;4.67;4.00;;;;;27.52;36.66;101420.22;5085766;27;45745;-83
2023/04/26 08:23:22;;;;;;;;;5.00;5.00;;;;;27.58;36.62;101415.91;5079263;27;45652;-84
2023/04/26 08:25:48;;;;;;;;;5.33;5.33;;;;;27.60;36.49;101417.50;5088317;27;45367;-83
2023/04/26 08:28:14;;;;;;;;;3.33;3.33;;;;;27.62;36.21;101420.03;5094087;27;45507;-85
2023/04/26 08:30:40;;;;;;;;;4.00;4.00;;;;;27.64;36.50;101428.03;5094463;27;45957;-83
2023/04/26 08:33:05;;;;;;;;;4.00;4.00;;;;;27.62;35.85;101418.16;5089293;27;45561;-85
2023/04/26 08:35:31;;;;;;;;;4.00;4.00;;;;;27.64;36.40;101417.13;5083351;27;45560;-85
2023/04/26 08:37:56;;;;;;;;;9.33;5.00;;;;;27.61;35.94;101408.28;5093801;27;46328;-85
2023/04/26 08:40:23;;;;;;;;;7.00;4.00;;;;;27.63;36.22;101410.84;5085753;27;57299;-84
2023/04/26 08:42:51;;;;;;;;;6.00;5.00;;;;;27.61;36.12;101405.56;5092146;27;45461;-83
2023/04/26 08:45:17;;;;;;;;;5.00;5.00;;;;;27.60;35.53;101409.31;5092137;27;45626;-83
2023/04/26 08:47:46;;;;;;;;;6.00;3.00;;;;;27.59;35.50;101402.13;5088719;27;46330;-83
2023/04/26 08:50:13;;;;;;;;;7.00;4.00;;;;;27.61;35.49;101401.97;5087593;27;45786;-88
2023/04/26 08:52:40;;;;;;;;;5.33;5.00;;;;;27.67;35.70;101403.13;5084784;27;45541;-84
2023/04/26 08:55:08;;;;;;;;;6.00;5.33;;;;;27.72;35.39;101408.91;5091367;27;45560;-84
2023/04/26 08:57:34;;;;;;;;;7.33;4.33;;;;;27.78;35.72;101401.88;5091917;27;48225;-85
2023/04/26 09:00:04;;;;;;;;;5.00;4.33;;;;;27.80;35.15;101402.53;5079126;27;45518;-85
2023/04/26 09:02:30;;;;;;;;;5.67;5.33;;;;;27.85;35.53;101414.59;5084552;27;45494;-82
2023/04/26 09:04:56;;;;;;;;;4.00;4.00;;;;;27.88;35.68;101414.22;5084502;27;45378;-84
2023/04/26 09:07:30;;;;;;;;;4.00;4.00;;;;;27.93;35.57;101410.09;5092078;27;45465;-85
2023/04/26 09:09:58;;;;;;;;;4.00;4.00;;;;;27.99;35.24;101407.50;5085765;27;45445;-90
2023/04/26 09:12:24;;;;;;;;;4.33;4.33;;;;;28.05;35.42;101402.34;5093610;27;45543;-84
2023/04/26 09:14:50;;;;;;;;;5.00;4.33;;;;;28.09;35.19;101399.06;5088584;27;45488;-87
2023/04/26 09:17:25;;;;;;;;;1.67;1.67;;;;;28.16;34.83;101399.19;5093542;27;45475;-87
2023/04/26 09:19:50;;;;;;;;;5.33;5.00;;;;;28.20;34.67;101399.66;5088596;27;45470;-87
2023/04/26 09:22:34;;;;;;;;;4.00;4.00;;;;;28.23;35.26;101399.25;5095411;27;45423;-88
2023/04/26 09:25:04;;;;;;;;;5.33;4.00;;;;;28.25;35.12;101405.44;5088610;27;45927;-88
2023/04/26 09:27:35;;;;;;;;;4.00;3.67;;;;;28.25;34.41;101406.25;5088064;27;46969;-86
2023/04/26 09:30:04;;;;;;;;;3.00;3.00;;;;;28.24;34.39;101404.56;5088987;27;45458;-86
2023/04/26 09:32:54;;;;;;;;;4.00;4.00;;;;;28.26;34.94;101402.53;5086750;27;45507;-84
2023/04/26 09:35:33;;;;;;;;;3.00;3.00;;;;;28.28;34.91;101392.25;5086072;27;45348;-84
2023/04/26 09:38:04;;;;;;;;;4.33;3.67;;;;;28.34;34.58;101389.81;5083048;27;46115;-84
2023/04/26 09:40:33;;;;;;;;;3.00;3.00;;;;;28.37;34.87;101390.28;5089971;27;45465;-85
2023/04/26 09:43:01;;;;;;;;;3.00;3.00;;;;;28.39;34.38;101396.44;5091756;27;45464;-87
2023/04/26 09:45:28;;;;;;;;;5.00;5.00;;;;;28.39;34.39;101398.28;5092932;27;45678;-87
2023/04/26 09:47:54;;;;;;;;;8.00;5.33;;;;;28.39;34.42;101398.28;5092273;27;45512;-88
2023/04/26 09:50:30;;;;;;;;;3.67;3.67;;;;;28.37;34.52;101394.91;5093227;27;45453;-89
2023/04/26 09:52:56;;;;;;;;;5.33;5.33;;;;;28.33;33.90;101402.63;5097390;27;45823;-81
2023/04/26 09:55:28;;;;;;;;;4.67;4.00;;;;;28.28;33.60;101397.72;5093027;27;45461;-77
2023/04/26 09:57:59;;;;;;;;;7.67;7.00;;;;;28.21;33.34;101391.28;5084506;27;46395;-77
2023/04/26 10:00:26;;;;;;;;;6.00;5.00;;;;;28.16;33.70;101388.25;5077481;27;45426;-78
2023/04/26 10:02:54;;;;;;;;;7.00;6.67;;;;;28.12;34.10;101393.22;5092885;27;45441;-77
2023/04/26 10:05:21;;;;;;;;;16.33;9.33;;;;;28.09;33.64;101396.34;5091847;27;45494;-78
2023/04/26 10:07:50;;;;;;;;;11.33;8.67;;;;;28.05;33.89;101389.53;5082613;27;45494;-76
2023/04/26 10:10:16;;;;;;;;;12.67;10.33;;;;;28.04;33.42;101376.09;5078605;27;45778;-75
2023/04/26 10:12:42;;;;;;;;;14.33;11.00;;;;;28.02;33.50;101381.72;5095121;27;45747;-77
2023/04/26 10:15:10;;;;;;;;;16.67;14.67;;;;;28.02;33.87;101381.72;5075623;27;45517;-76
2023/04/26 10:17:36;;;;;;;;;16.00;11.67;;;;;28.02;33.08;101388.03;5085910;27;45827;-77
2023/04/26 10:20:04;;;;;;;;;8.67;8.67;;;;;28.04;33.69;101381.53;5092817;27;45734;-77
2023/04/26 10:22:34;;;;;;;;;9.00;8.00;;;;;28.03;33.19;101377.94;5092124;27;45374;-76
2023/04/26 10:25:00;;;;;;;;;5.67;4.67;;;;;28.05;33.45;101367.72;5091036;27;45483;-75
2023/04/26 10:27:46;;;;;;;;;10.00;8.00;;;;;28.05;33.51;101370.44;5096425;27;46314;-77
2023/04/26 10:30:13;;;;;;;;;8.00;7.00;;;;;28.07;33.02;101373.00;5091683;27;45648;-78
2023/04/26 10:32:56;;;;;;;;;8.67;5.67;;;;;28.09;33.21;101369.06;5086857;27;45416;-77
2023/04/26 10:35:26;;;;;;;;;6.00;4.33;;;;;28.14;32.98;101354.84;5086225;27;45394;-77
2023/04/26 10:38:00;;;;;;;;;8.33;6.67;;;;;28.20;32.90;101364.19;5090824;27;46207;-77
2023/04/26 10:40:29;;;;;;;;;6.33;6.33;;;;;28.26;32.69;101358.00;5092293;27;45437;-76
2023/04/26 10:43:09;;;;;;;;;8.67;7.67;;;;;28.30;33.05;101351.13;5080484;27;45535;-77
2023/04/26 10:45:36;;;;;;;;;12.00;7.00;;;;;28.36;33.28;101364.03;5089759;27;45550;-77
2023/04/26 10:48:17;;;;;;;;;6.33;6.33;;;;;28.40;33.34;101359.03;5088397;27;46061;-76
2023/04/26 10:51:00;;;;;;;;;5.00;5.00;;;;;28.44;32.89;101352.16;5092607;27;45494;-77
2023/04/26 10:53:51;;;;;;;;;7.33;7.00;;;;;28.46;33.15;101352.84;5081933;27;46465;-75
2023/04/26 10:56:23;;;;;;;;;8.00;6.67;;;;;28.49;32.86;101354.34;5087454;27;45336;-79
2023/04/26 10:59:06;;;;;;;;;5.00;5.00;;;;;28.47;32.74;101351.81;5078869;27;47866;-76
2023/04/26 11:01:31;;;;;;;;;5.33;5.33;;;;;28.47;32.98;101351.81;5081594;27;45484;-76
2023/04/26 11:03:56;;;;;;;;;9.00;7.00;;;;;28.45;32.98;101348.44;5086522;27;45620;-76
2023/04/26 11:06:23;;;;;;;;;4.67;3.33;;;;;28.42;32.18;101343.34;5090950;27;45697;-76
2023/04/26 11:08:49;;;;;;;;;7.67;6.33;;;;;28.39;32.89;101340.97;5077715;27;46081;-76
2023/04/26 11:11:18;;;;;;;;;7.00;7.00;;;;;28.35;32.61;101351.41;5076418;27;45814;-76
2023/04/26 11:13:44;;;;;;;;;6.33;6.00;;;;;28.31;31.98;101344.63;5079447;27;46711;-76
2023/04/26 11:16:11;;;;;;;;;4.00;4.00;;;;;28.27;32.18;101343.31;5081124;27;46275;-76
2023/04/26 11:18:41;;;;;;;;;6.00;5.00;;;;;28.24;32.46;101343.66;5075720;27;45758;-76
2023/04/26 11:21:07;;;;;;;;;5.00;4.67;;;;;28.19;32.15;101337.94;5081174;27;45658;-76
2023/04/26 11:23:35;;;;;;;;;6.33;6.00;;;;;28.15;32.08;101338.28;5081474;27;45474;-76
2023/04/26 11:26:10;;;;;;;;;6.67;5.00;;;;;28.14;32.51;101341.19;5076753;27;46675;-78
2023/04/26 11:28:37;;;;;;;;;4.33;4.33;;;;;28.11;32.33;101338.81;5091944;27;45476;-77
2023/04/26 11:31:05;;;;;;;;;6.67;6.00;;;;;28.11;32.28;101336.97;5088428;27;46089;-77
2023/04/26 11:33:32;;;;;;;;;8.00;5.00;;;;;28.14;32.34;101335.75;5090567;27;45406;-77
2023/04/26 11:35:58;;;;;;;;;6.67;4.67;;;;;28.19;32.34;101329.75;5093773;27;45486;-76
2023/04/26 11:38:26;;;;;;;;;3.33;3.00;;;;;28.25;32.69;101331.75;5094721;27;45961;-76
2023/04/26 11:41:00;;;;;;;;;4.00;3.00;;;;;28.28;32.53;101325.91;5094950;27;45556;-77
2023/04/26 11:43:31;;;;;;;;;4.33;4.33;;;;;28.34;31.90;101327.91;5085800;27;45513;-78
2023/04/26 11:46:00;;;;;;;;;6.67;5.00;;;;;28.38;32.43;101322.91;5095063;27;45754;-77
2023/04/26 11:48:27;;;;;;;;;7.33;5.00;;;;;28.40;32.61;101318.94;5088615;27;45523;-75
2023/04/26 11:50:53;;;;;;;;;6.00;4.33;;;;;28.45;32.14;101312.94;5084212;27;47168;-78
2023/04/26 11:53:18;;;;;;;;;9.00;5.67;;;;;28.50;32.11;101317.81;5086724;27;45454;-75
2023/04/26 11:55:44;;;;;;;;;8.00;5.33;;;;;28.51;32.48;101309.44;5090118;27;45476;-76
2023/04/26 11:58:11;;;;;;;;;7.00;5.00;;;;;28.53;32.13;101315.56;5094272;27;46015;-76
2023/04/26 12:00:53;;;;;;;;;3.67;3.67;;;;;28.56;32.49;101314.31;5099528;27;46389;-77
2023/04/26 12:03:19;;;;;;;;;5.00;3.00;;;;;28.59;31.80;101310.38;5095121;27;45408;-78
2023/04/26 12:05:53;;;;;;;;;6.00;4.00;;;;;28.59;31.83;101299.44;5094976;27;45485;-76
2023/04/26 12:08:23;;;;;;;;;7.33;5.00;;;;;28.62;32.08;101301.81;5091850;27;46440;-76
2023/04/26 12:10:48;;;;;;;;;2.00;2.00;;;;;28.64;32.32;101294.25;5095017;27;45433;-77
2023/04/26 12:13:13;;;;;;;;;6.00;4.33;;;;;28.64;32.33;101294.25;5091059;27;45681;-79
2023/04/26 12:15:39;;;;;;;;;5.67;3.67;;;;;28.64;32.20;101289.66;5094391;27;50360;-79
2023/04/26 12:18:09;;;;;;;;;4.00;4.00;;;;;28.66;31.84;101293.03;5092429;27;45596;-75
2023/04/26 12:20:37;;;;;;;;;4.33;4.33;;;;;28.66;32.33;101289.47;5092518;27;45577;-76
2023/04/26 12:23:07;;;;;;;;;4.00;4.00;;;;;28.68;31.96;101287.38;5092672;27;45408;-76
2023/04/26 12:25:35;;;;;;;;;3.33;3.33;;;;;28.70;31.77;101303.59;5081369;27;45477;-76
2023/04/26 12:28:03;;;;;;;;;5.00;4.00;;;;;28.71;32.04;101297.09;5091275;27;45986;-75
2023/04/26 12:30:29;;;;;;;;;3.33;2.00;;;;;28.69;31.97;101296.44;5092610;27;45446;-77
2023/04/26 12:32:55;;;;;;;;;3.67;3.67;;;;;28.68;31.82;101295.56;5092678;27;45598;-77
2023/04/26 12:35:21;;;;;;;;;5.33;5.33;;;;;28.70;32.23;101301.72;5091719;27;45469;-79
2023/04/26 12:37:48;;;;;;;;;5.00;5.00;;;;;28.71;32.31;101306.13;5093285;27;46639;-78
2023/04/26 12:40:15;;;;;;;;;4.00;4.00;;;;;28.74;32.42;101302.16;5086708;27;45442;-78
2023/04/26 12:42:40;;;;;;;;;3.00;3.00;;;;;28.73;31.87;101298.59;5086418;27;45501;-78
2023/04/26 12:45:06;;;;;;;;;5.67;3.00;;;;;28.72;32.06;101301.53;5091610;27;45309;-76
2023/04/26 12:47:32;;;;;;;;;3.67;3.67;;;;;28.73;31.81;101308.69;5091922;27;46063;-77
2023/04/26 12:49:59;;;;;;;;;4.33;4.00;;;;;28.72;31.80;101301.53;5086748;27;45464;-76
2023/04/26 12:52:25;;;;;;;;;6.00;3.33;;;;;28.73;31.89;101303.22;5094845;27;45580;-82
2023/04/26 12:54:51;;;;;;;;;5.33;4.00;;;;;28.74;32.12;101313.09;5093266;27;45468;-79
2023/04/26 12:57:16;;;;;;;;;5.00;3.33;;;;;28.75;32.20;101299.25;5087068;27;45882;-81
2023/04/26 12:59:42;;;;;;;;;5.33;3.67;;;;;28.78;32.46;101300.75;5075243;27;45394;-76
2023/04/26 13:02:08;;;;;;;;;3.33;2.00;;;;;28.79;32.19;101305.19;5087582;27;45454;-75
2023/04/26 13:04:34;;;;;;;;;4.67;3.67;;;;;28.82;32.04;101306.69;5087321;27;45366;-75
2023/04/26 13:06:59;;;;;;;;;3.00;3.00;;;;;28.83;32.29;101311.97;5093016;27;46456;-76
2023/04/26 13:09:25;;;;;;;;;4.00;4.00;;;;;28.86;32.81;101313.47;5086377;27;45372;-76
2023/04/26 13:11:50;;;;;;;;;3.67;3.00;;;;;28.86;32.68;101306.13;5093465;27;45511;-79
2023/04/26 13:14:15;;;;;;;;;2.00;2.00;;;;;28.87;32.31;101310.53;5088733;27;45385;-77
2023/04/26 13:16:42;;;;;;;;;4.33;4.33;;;;;28.86;31.84;101311.59;5093399;27;46113;-75
2023/04/26 13:19:09;;;;;;;;;3.00;3.00;;;;;28.87;32.41;101309.69;5093238;27;45409;-75
2023/04/26 13:21:34;;;;;;;;;3.00;3.00;;;;;28.88;32.50;101309.53;5092447;27;45373;-75
2023/04/26 13:24:00;;;;;;;;;3.33;3.00;;;;;28.90;32.03;101306.59;5092076;27;45772;-75
2023/04/26 13:26:25;;;;;;;;;2.33;2.33;;;;;28.91;32.21;101309.16;5086055;27;51336;-78
2023/04/26 13:28:50;;;;;;;;;6.67;4.67;;;;;28.94;31.97;101305.19;5092300;27;45440;-78
2023/04/26 13:31:16;;;;;;;;;4.00;2.00;;;;;28.96;32.08;101300.38;5089713;27;52923;-77
2023/04/26 13:33:42;;;;;;;;;3.33;1.67;;;;;28.99;32.43;101308.19;5094054;27;45631;-78
2023/04/26 13:36:07;;;;;;;;;3.33;3.33;;;;;28.98;32.50;101301.00;5086289;27;46147;-76
2023/04/26 13:38:33;;;;;;;;;6.00;5.00;;;;;29.00;32.11;101298.94;5077171;27;45457;-76
2023/04/26 13:40:58;;;;;;;;;7.00;5.33;;;;;28.95;31.97;101289.63;5076773;27;45674;-75
2023/04/26 13:43:24;;;;;;;;;5.67;5.33;;;;;28.86;31.13;101294.34;5086590;27;45367;-76
2023/04/26 13:45:50;;;;;;;;;8.00;6.33;;;;;28.76;31.66;101286.44;5072868;27;69251;-77
2023/04/26 13:48:16;;;;;;;;;6.00;3.00;;;;;28.66;31.75;101273.09;5077292;27;45494;-76
2023/04/26 13:50:41;;;;;;;;;4.33;4.33;;;;;28.60;31.60;101273.84;5087406;27;45492;-76
2023/04/26 13:53:07;;;;;;;;;6.00;5.33;;;;;28.57;31.53;101271.50;5090058;27;45673;-75
2023/04/26 13:55:32;;;;;;;;;5.33;5.00;;;;;28.56;31.09;101270.63;5085703;27;45457;-74
2023/04/26 13:57:57;;;;;;;;;4.33;4.33;;;;;28.57;31.27;101276.97;5092221;27;45394;-75
2023/04/26 14:00:23;;;;;;;;;5.00;4.33;;;;;28.62;31.08;101277.22;5092435;27;45387;-75
2023/04/26 14:02:48;;;;;;;;;4.00;4.00;;;;;28.66;31.43;101279.38;5091517;27;45801;-75
2023/04/26 14:05:14;;;;;;;;;4.33;3.00;;;;;28.74;31.30;101288.50;5087866;27;46077;-76
2023/04/26 14:07:40;;;;;;;;;3.67;3.33;;;;;28.79;31.43;101280.59;5091416;27;45578;-74
2023/04/26 14:10:06;;;;;;;;;3.67;3.67;;;;;28.83;31.46;101284.63;5091061;27;45441;-76
2023/04/26 14:12:31;;;;;;;;;3.33;3.00;;;;;28.87;31.06;101285.09;5083789;27;45504;-76
2023/04/26 14:14:57;;;;;;;;;7.33;4.67;;;;;28.88;31.68;101279.47;5081694;27;46722;-75
2023/04/26 14:17:22;;;;;;;;;5.00;3.33;;;;;28.88;31.12;101284.94;5078795;27;45582;-75
2023/04/26 14:19:47;;;;;;;;;5.67;4.00;;;;;28.88;31.04;101276.75;5084840;27;49742;-75
2023/04/26 14:22:16;;;;;;;;;4.00;4.00;;;;;28.91;31.07;101278.25;5089083;27;45539;-75
2023/04/26 14:24:41;;;;;;;;;4.33;4.00;;;;;28.91;30.89;101275.50;5081312;27;46064;-75
2023/04/26 14:27:06;;;;;;;;;3.33;3.00;;;;;28.88;31.08;101281.31;5081407;27;45474;-75
2023/04/26 14:29:32;;;;;;;;;2.00;2.00;;;;;28.87;31.44;101282.38;5083255;27;54089;-74
2023/04/26 14:32:00;;;;;;;;;6.00;4.00;;;;;28.84;30.71;101282.75;5096851;27;45811;-76
2023/04/26 14:34:25;;;;;;;;;5.00;4.00;;;;;28.82;31.19;101279.38;5076934;27;45488;-74
2023/04/26 14:36:51;;;;;;;;;6.00;5.00;;;;;28.80;30.87;101274.09;5076773;27;45548;-76
2023/04/26 14:39:16;;;;;;;;;4.67;3.00;;;;;28.79;31.40;101266.94;5087958;27;46205;-75
2023/04/26 14:41:42;;;;;;;;;8.00;6.00;;;;;28.76;30.52;101272.78;5091374;27;50856;-78
2023/04/26 14:44:07;;;;;;;;;5.00;5.00;;;;;28.75;30.99;101271.09;5085229;27;45995;-79
2023/04/26 14:46:32;;;;;;;;;5.00;4.67;;;;;28.74;31.13;101277.59;5071777;27;45551;-78
2023/04/26 14:48:58;;;;;;;;;6.67;4.00;;;;;28.74;31.21;101273.00;5077999;27;46708;-78
2023/04/26 14:51:23;;;;;;;;;3.00;3.00;;;;;28.74;30.42;101263.94;5079796;27;45575;-75
2023/04/26 14:53:48;;;;;;;;;6.00;5.67;;;;;28.72;30.52;101261.38;5082432;27;45391;-77
2023/04/26 14:56:14;;;;;;;;;4.67;4.67;;;;;28.73;30.61;101260.34;5078547;27;51771;-76
2023/04/26 14:58:39;;;;;;;;;4.33;4.33;;;;;28.71;30.44;101259.69;5082322;27;45554;-76
2023/04/26 15:01:05;;;;;;;;;4.33;4.33;;;;;28.66;31.02;101254.78;5079990;27;45766;-75
2023/04/26 15:03:31;;;;;;;;;6.33;3.33;;;;;28.62;30.52;101252.66;5091854;27;46551;-74
2023/04/26 15:05:56;;;;;;;;;6.67;5.00;;;;;28.58;30.81;101254.06;5094776;27;45451;-76
2023/04/26 15:08:22;;;;;;;;;3.00;3.00;;;;;28.53;30.47;101250.03;5092806;27;45509;-76
2023/04/26 15:10:47;;;;;;;;;6.67;5.00;;;;;28.49;30.94;101254.16;5094842;27;45570;-75
2023/04/26 15:13:12;;;;;;;;;4.67;4.33;;;;;28.45;30.59;101252.88;5092706;27;45402;-75
2023/04/26 15:15:38;;;;;;;;;3.33;3.33;;;;;28.41;30.60;101254.28;5093338;27;45791;-77
2023/04/26 15:18:04;;;;;;;;;4.33;4.33;;;;;28.37;30.48;101264.72;5092725;27;45744;-75
2023/04/26 15:20:29;;;;;;;;;3.67;3.00;;;;;28.34;30.41;101256.94;5095850;27;45424;-77
2023/04/26 15:22:54;;;;;;;;;3.00;3.00;;;;;28.32;30.98;101258.97;5091628;27;45587;-75
2023/04/26 15:25:20;;;;;;;;;3.00;3.00;;;;;28.28;30.57;101263.13;5093702;27;45484;-77
2023/04/26 15:27:45;;;;;;;;;3.00;3.00;;;;;28.26;30.85;101265.19;5091628;27;45498;-75
2023/04/26 15:30:11;;;;;;;;;3.67;3.67;;;;;28.24;30.68;101261.78;5092078;27;45435;-75
2023/04/26 15:32:37;;;;;;;;;4.00;4.00;;;;;28.19;30.66;101245.97;5092499;27;45466;-76
2023/04/26 15:35:04;;;;;;;;;4.00;4.00;;;;;28.17;30.14;101256.25;5093580;27;45531;-77
2023/04/26 15:37:30;;;;;;;;;5.33;4.33;;;;;28.17;30.34;101258.09;5089650;27;45453;-75
2023/04/26 15:39:56;;;;;;;;;5.00;5.00;;;;;28.14;30.41;101248.41;5081068;27;45542;-75
2023/04/26 15:42:21;;;;;;;;;4.33;4.00;;;;;28.12;30.12;101256.78;5088430;27;45670;-74
2023/04/26 15:44:47;;;;;;;;;5.67;4.00;;;;;28.08;30.14;101252.72;5081379;27;45420;-75
2023/04/26 15:47:13;;;;;;;;;5.00;4.00;;;;;28.07;30.26;101255.69;5085677;27;45333;-73
2023/04/26 15:49:38;;;;;;;;;4.00;4.00;;;;;28.07;31.08;101251.03;5075814;27;45613;-74
2023/04/26 15:52:03;;;;;;;;;4.00;3.33;;;;;28.12;30.89;101250.50;5091662;27;45780;-74
2023/04/26 15:54:28;;;;;;;;;2.33;2.33;;;;;28.17;31.35;101253.50;5092271;27;45397;-75
2023/04/26 15:56:54;;;;;;;;;2.00;2.00;;;;;28.23;31.33;101260.94;5091750;27;45545;-74
2023/04/26 15:59:19;;;;;;;;;2.67;2.67;;;;;28.28;30.98;101254.94;5091887;27;45406;-75
2023/04/26 16:01:45;;;;;;;;;3.67;3.67;;;;;28.35;31.41;101247.69;5079469;27;45633;-75
2023/04/26 16:04:10;;;;;;;;;3.00;3.00;;;;;28.43;30.70;101260.41;5081543;27;45564;-75
2023/04/26 16:06:36;;;;;;;;;6.00;4.00;;;;;28.51;30.65;101264.91;5082217;27;45503;-72
2023/04/26 16:09:06;;;;;;;;;2.00;2.00;;;;;28.57;31.30;101260.56;5080113;27;45456;-75
2023/04/26 16:11:31;;;;;;;;;4.67;4.00;;;;;28.65;31.30;101261.31;5078796;27;45454;-75
2023/04/26 16:13:57;;;;;;;;;4.67;4.00;;;;;28.72;31.21;101263.28;5080939;27;46261;-75
2023/04/26 16:16:22;;;;;;;;;7.00;4.33;;;;;28.77;31.12;101263.56;5085515;27;50779;-72
2023/04/26 16:18:47;;;;;;;;;4.33;4.33;;;;;28.80;30.98;101268.63;5086397;27;46226;-74
2023/04/26 16:21:13;;;;;;;;;3.00;3.00;;;;;28.82;30.71;101269.28;5086391;27;56024;-72
2023/04/26 16:23:40;;;;;;;;;4.33;3.00;;;;;28.85;31.00;101270.78;5088148;27;46027;-73
2023/04/26 16:26:05;;;;;;;;;4.00;4.00;;;;;28.89;31.08;101272.97;5084373;27;45545;-73
2023/04/26 16:28:31;;;;;;;;;4.00;4.00;;;;;28.93;31.29;101276.16;5085802;27;45395;-73
2023/04/26 16:30:56;;;;;;;;;3.00;3.00;;;;;28.96;30.79;101278.50;5083732;27;45662;-72
2023/04/26 16:33:22;;;;;;;;;3.33;3.33;;;;;28.98;30.57;101281.06;5088896;27;46318;-72
2023/04/26 16:35:52;;;;;;;;;6.33;3.00;;;;;28.97;30.56;101276.63;5083062;27;45495;-74
2023/04/26 16:38:18;;;;;;;;;2.67;2.67;;;;;28.99;30.80;101282.75;5092109;27;45533;-73
2023/04/26 16:40:44;;;;;;;;;4.33;2.67;;;;;28.96;31.08;101291.31;5084488;27;45687;-75
2023/04/26 16:43:13;;;;;;;;;3.33;3.33;;;;;28.93;31.13;101285.22;5086465;27;45424;-74
2023/04/26 16:45:38;;;;;;;;;3.00;3.00;;;;;28.92;30.82;101282.66;5085842;27;45612;-76
2023/04/26 16:48:04;;;;;;;;;3.67;3.00;;;;;28.94;30.70;101288.81;5081775;27;45389;-76
2023/04/26 16:50:29;;;;;;;;;3.67;3.67;;;;;28.96;30.85;101294.91;5088954;27;46114;-77
2023/04/26 16:52:54;;;;;;;;;2.00;2.00;;;;;28.99;30.70;101290.94;5078990;27;45446;-77
2023/04/26 16:55:20;;;;;;;;;4.00;2.33;;;;;29.00;30.57;101292.63;5084694;27;45426;-76
2023/04/26 16:57:45;;;;;;;;;2.67;2.33;;;;;29.01;30.79;101288.88;5074319;27;45394;-77
2023/04/26 17:00:11;;;;;;;;;14.67;10.33;;;;;29.03;31.07;101292.25;5084405;27;45667;-76
2023/04/26 17:02:38;;;;;;;;;6.33;6.00;;;;;29.01;30.57;101299.81;5082926;27;45714;-75
2023/04/26 17:05:03;;;;;;;;;5.00;5.00;;;;;28.92;30.83;101294.44;5091180;27;45355;-73
2023/04/26 17:07:29;;;;;;;;;6.00;6.00;;;;;28.88;30.69;101295.88;5081525;27;46134;-75
2023/04/26 17:09:54;;;;;;;;;4.33;4.00;;;;;28.86;30.57;101303.38;5085402;27;55683;-74
2023/04/26 17:12:19;;;;;;;;;2.67;2.67;;;;;28.87;30.69;101298.75;5084736;27;45475;-75
2023/04/26 17:14:45;;;;;;;;;5.00;5.00;;;;;28.88;30.80;101290.41;5081483;27;45615;-75
2023/04/26 17:17:10;;;;;;;;;4.33;4.00;;;;;28.90;30.68;101291.03;5081205;27;51500;-75
2023/04/26 17:19:35;;;;;;;;;6.67;6.00;;;;;28.92;30.91;101288.13;5092703;27;47110;-75
2023/04/26 17:22:01;;;;;;;;;5.67;5.67;;;;;28.94;30.35;101286.06;5077000;27;45554;-76
2023/04/26 17:24:26;;;;;;;;;6.00;4.67;;;;;28.96;30.50;101289.44;5080163;27;45616;-76
2023/04/26 17:26:52;;;;;;;;;6.67;3.67;;;;;28.96;31.03;101294.03;5079060;27;45745;-76
2023/04/26 17:29:17;;;;;;;;;3.00;3.00;;;;;28.97;30.64;101287.56;5084709;27;46373;-76
2023/04/26 17:31:43;;;;;;;;;6.00;4.33;;;;;28.98;31.09;101297.44;5077908;27;57075;-77
2023/04/26 17:34:08;;;;;;;;;5.33;4.00;;;;;28.97;30.81;101295.75;5081419;27;45775;-76
2023/04/26 17:36:33;;;;;;;;;4.00;4.00;;;;;28.95;30.63;101295.94;5078990;27;45762;-77
2023/04/26 17:38:59;;;;;;;;;4.33;2.67;;;;;28.90;31.01;101292.94;5060732;27;53930;-75
2023/04/26 17:41:24;;;;;;;;;4.00;4.00;;;;;28.86;31.37;101300.66;5077536;27;45693;-76
2023/04/26 17:43:50;;;;;;;;;4.67;3.00;;;;;28.80;31.20;101291.34;5080836;27;45842;-75
2023/04/26 17:46:15;;;;;;;;;3.00;3.00;;;;;28.77;31.14;101299.91;5077416;27;45747;-76
2023/04/26 17:48:40;;;;;;;;;3.67;3.67;;;;;28.71;30.71;101289.75;5081885;27;45583;-75
2023/04/26 17:51:05;;;;;;;;;6.00;3.00;;;;;28.66;30.84;101298.50;5076515;27;54836;-76
2023/04/26 17:53:32;;;;;;;;;3.33;3.33;;;;;28.63;31.00;101298.03;5080704;27;51573;-76
2023/04/26 17:55:57;;;;;;;;;5.00;4.00;;;;;28.60;30.66;101301.16;5087609;27;45708;-77
2023/04/26 17:58:22;;;;;;;;;5.00;3.33;;;;;28.56;31.39;101305.31;5083075;27;46036;-77
2023/04/26 18:00:48;;;;;;;;;3.00;3.00;;;;;28.51;31.17;101305.84;5076278;27;45533;-75
2023/04/26 18:03:13;;;;;;;;;3.33;3.00;;;;;28.49;30.74;101311.50;5076765;27;45387;-75